Time;durP1;ratioP1;P1;durP2;ratioP2;P2;SDS_P1;SDS_P2;PMS_P1;PMS_P2;Temp;Humidity;BMP_temperature;BMP_pressure;BME280_temperature;BME280_humidity;BME280_pressure;Samples;Min_cycle;Max_cycle;Signal;HPM_P1;HPM_P2
2023/01/21 00:02:14;;;;;;;20.67;14.47;;;;;;;;;;5085490;28;20193;-83
2023/01/21 00:04:40;;;;;;;20.53;14.43;;;;;;;;;;5057294;28;20173;-81
2023/01/21 00:07:07;;;;;;;21.67;14.40;;;;;;;;;;5057533;28;20204;-86
2023/01/21 00:09:33;;;;;;;22.17;14.43;;;;;;;;;;5074168;28;20177;-88
2023/01/21 00:12:03;;;;;;;19.20;13.77;;;;;;;;;;5054282;28;20231;-83
2023/01/21 00:14:29;;;;;;;18.93;14.57;;;;;;;;;;5043134;28;20189;-86
2023/01/21 00:16:55;;;;;;;20.63;15.07;;;;;;;;;;5057734;28;20506;-82
2023/01/21 00:19:21;;;;;;;21.90;14.70;;;;;;;;;;5058368;28;20201;-84
2023/01/21 00:21:47;;;;;;;19.30;15.30;;;;;;;;;;5061410;28;20177;-86
2023/01/21 00:24:13;;;;;;;21.13;15.17;;;;;;;;;;5057370;28;20191;-82
2023/01/21 00:26:39;;;;;;;19.80;14.83;;;;;;;;;;5057253;28;20622;-86
2023/01/21 00:29:05;;;;;;;21.33;15.03;;;;;;;;;;5091686;28;20180;-83
2023/01/21 00:31:31;;;;;;;22.43;15.47;;;;;;;;;;5075249;28;20205;-82
2023/01/21 00:33:57;;;;;;;18.63;14.97;;;;;;;;;;5083142;28;20182;-84
2023/01/21 00:36:28;;;;;;;21.10;15.77;;;;;;;;;;5089999;28;20269;-85
2023/01/21 00:38:54;;;;;;;19.90;15.47;;;;;;;;;;5057552;28;20208;-86
2023/01/21 00:41:20;;;;;;;19.87;14.97;;;;;;;;;;5055362;28;20642;-83
2023/01/21 00:43:46;;;;;;;18.13;14.03;;;;;;;;;;5071813;28;20264;-84
2023/01/21 00:46:13;;;;;;;18.90;13.90;;;;;;;;;;5073881;28;20207;-86
2023/01/21 00:48:39;;;;;;;19.37;14.20;;;;;;;;;;5057214;28;20213;-84
2023/01/21 00:51:05;;;;;;;16.90;13.47;;;;;;;;;;5058330;28;20665;-83
2023/01/21 00:53:33;;;;;;;19.03;13.63;;;;;;;;;;5071085;28;20192;-88
2023/01/21 00:56:03;;;;;;;17.90;14.23;;;;;;;;;;5055981;28;20177;-82
2023/01/21 00:58:30;;;;;;;16.97;13.50;;;;;;;;;;5075230;28;20188;-84
2023/01/21 01:01:11;;;;;;;17.50;13.37;;;;;;;;;;5053006;28;20186;-85
2023/01/21 01:03:38;;;;;;;15.93;12.00;;;;;;;;;;5050976;28;20187;-83
2023/01/21 01:06:05;;;;;;;16.87;12.27;;;;;;;;;;5056813;28;20222;-83
2023/01/21 01:08:31;;;;;;;16.90;12.40;;;;;;;;;;5055743;28;20177;-84
2023/01/21 01:10:58;;;;;;;14.40;11.53;;;;;;;;;;5056237;28;20197;-84
2023/01/21 01:13:24;;;;;;;14.30;10.20;;;;;;;;;;5056833;28;20177;-85
2023/01/21 01:15:53;;;;;;;13.67;11.53;;;;;;;;;;5060433;28;20280;-87
2023/01/21 01:18:19;;;;;;;12.57;9.97;;;;;;;;;;5056322;28;20185;-86
2023/01/21 01:20:46;;;;;;;10.60;9.00;;;;;;;;;;5071119;28;20204;-83
2023/01/21 01:23:12;;;;;;;11.20;9.20;;;;;;;;;;5054532;28;20185;-84
2023/01/21 01:25:38;;;;;;;11.80;10.07;;;;;;;;;;5068007;28;20173;-86
2023/01/21 01:28:32;;;;;;;11.87;10.23;;;;;;;;;;5057787;28;20212;-86
2023/01/21 01:30:58;;;;;;;13.17;9.63;;;;;;;;;;5072635;28;20295;-85
2023/01/21 01:33:25;;;;;;;11.27;10.07;;;;;;;;;;5056146;28;20181;-86
2023/01/21 01:35:51;;;;;;;12.03;10.13;;;;;;;;;;5071910;28;20220;-83
2023/01/21 01:38:21;;;;;;;13.60;10.90;;;;;;;;;;5054920;28;20181;-81
2023/01/21 01:40:48;;;;;;;13.87;10.57;;;;;;;;;;5056202;28;20626;-85
2023/01/21 01:43:13;;;;;;;14.40;10.43;;;;;;;;;;5052863;28;20243;-83
2023/01/21 01:45:39;;;;;;;12.60;10.67;;;;;;;;;;5050345;28;20181;-81
2023/01/21 01:48:06;;;;;;;13.67;10.20;;;;;;;;;;5066236;28;20658;-86
2023/01/21 01:50:33;;;;;;;12.17;9.93;;;;;;;;;;5068847;28;20254;-85
2023/01/21 01:53:00;;;;;;;10.93;8.90;;;;;;;;;;5056595;28;20190;-86
2023/01/21 01:55:26;;;;;;;13.33;9.43;;;;;;;;;;5073112;28;20177;-82
2023/01/21 01:57:53;;;;;;;12.33;9.23;;;;;;;;;;5055443;28;20626;-82
2023/01/21 02:00:20;;;;;;;12.13;9.33;;;;;;;;;;5056958;28;20563;-83
2023/01/21 02:03:43;;;;;;;13.03;9.80;;;;;;;;;;5059222;28;20623;-83
2023/01/21 02:05:36;;;;;;;12.77;9.40;;;;;;;;;;5069803;28;20181;-83
2023/01/21 02:08:02;;;;;;;11.20;9.33;;;;;;;;;;5056084;28;20180;-83
2023/01/21 02:10:30;;;;;;;13.23;10.40;;;;;;;;;;5056457;28;20212;-85
2023/01/21 02:12:57;;;;;;;11.90;9.27;;;;;;;;;;5058233;28;20193;-82
2023/01/21 02:15:28;;;;;;;11.50;9.43;;;;;;;;;;5055493;28;20191;-86
2023/01/21 02:17:54;;;;;;;11.67;9.33;;;;;;;;;;5067949;28;20181;-81
2023/01/21 02:20:39;;;;;;;11.87;9.63;;;;;;;;;;5053800;28;20211;-84
2023/01/21 02:23:05;;;;;;;11.47;9.07;;;;;;;;;;5072828;28;20173;-87
2023/01/21 02:25:50;;;;;;;10.60;8.93;;;;;;;;;;5056149;28;20201;-85
2023/01/21 02:28:19;;;;;;;10.50;9.10;;;;;;;;;;5071624;28;20199;-86
2023/01/21 02:30:57;;;;;;;11.97;9.37;;;;;;;;;;5085071;28;20209;-81
2023/01/21 02:33:35;;;;;;;10.60;8.57;;;;;;;;;;5082925;28;20607;-83
2023/01/21 02:36:13;;;;;;;11.90;9.53;;;;;;;;;;5066715;28;20657;-84
2023/01/21 02:38:59;;;;;;;9.93;8.50;;;;;;;;;;5052445;28;20189;-85
2023/01/21 02:41:34;;;;;;;10.93;8.83;;;;;;;;;;5072333;28;20653;-81
2023/01/21 02:44:16;;;;;;;13.80;9.10;;;;;;;;;;5084906;28;20177;-85
2023/01/21 02:46:45;;;;;;;13.00;9.30;;;;;;;;;;5048831;28;20186;-82
2023/01/21 02:49:14;;;;;;;10.57;8.57;;;;;;;;;;5072330;28;20228;-86
2023/01/21 02:54:48;;;;;;;12.47;8.97;;;;;;;;;;5067007;28;20196;-83
2023/01/21 02:57:16;;;;;;;11.30;9.00;;;;;;;;;;5047049;28;20181;-83
2023/01/21 02:59:45;;;;;;;10.53;8.47;;;;;;;;;;5065594;28;20196;-81
2023/01/21 03:02:27;;;;;;;10.77;8.47;;;;;;;;;;5068584;28;20602;-86
2023/01/21 03:04:52;;;;;;;10.77;8.47;;;;;;;;;;5072293;28;20181;-85
2023/01/21 03:07:30;;;;;;;8.73;7.83;;;;;;;;;;5055334;28;20247;-85
2023/01/21 03:10:00;;;;;;;10.73;8.53;;;;;;;;;;5070102;28;20295;-82
2023/01/21 03:12:34;;;;;;;9.17;7.57;;;;;;;;;;5087681;28;20197;-82
2023/01/21 03:17:57;;;;;;;9.73;7.93;;;;;;;;;;5069759;28;20227;-81
2023/01/21 03:20:29;;;;;;;10.07;8.53;;;;;;;;;;5054044;28;20552;-81
2023/01/21 03:23:22;;;;;;;9.40;7.77;;;;;;;;;;5057170;28;20185;-83
2023/01/21 03:25:50;;;;;;;11.40;8.67;;;;;;;;;;5051277;28;20542;-84
2023/01/21 03:28:23;;;;;;;8.83;7.13;;;;;;;;;;5088772;28;20649;-83
2023/01/21 03:30:51;;;;;;;8.83;7.93;;;;;;;;;;5072482;28;20231;-81
2023/01/21 03:33:18;;;;;;;10.20;8.40;;;;;;;;;;5052933;28;20177;-88
2023/01/21 03:35:46;;;;;;;11.37;8.97;;;;;;;;;;5068175;28;20242;-85
2023/01/21 03:38:30;;;;;;;11.67;9.33;;;;;;;;;;5054491;28;20267;-85
2023/01/21 03:41:02;;;;;;;10.83;8.73;;;;;;;;;;5053526;28;20279;-83
2023/01/21 03:43:28;;;;;;;11.00;8.73;;;;;;;;;;5066623;28;20185;-85
2023/01/21 03:46:00;;;;;;;11.60;8.57;;;;;;;;;;5051752;28;23768;-81
2023/01/21 03:48:30;;;;;;;14.20;8.73;;;;;;;;;;5054398;28;20217;-79
2023/01/21 03:50:58;;;;;;;12.03;9.60;;;;;;;;;;5058507;28;20204;-80
2023/01/21 03:53:25;;;;;;;14.23;10.70;;;;;;;;;;5050833;28;20184;-85
2023/01/21 03:55:51;;;;;;;16.20;11.97;;;;;;;;;;5063032;28;20181;-84
2023/01/21 03:58:17;;;;;;;13.43;10.57;;;;;;;;;;5071089;28;20204;-85
2023/01/21 04:00:45;;;;;;;12.27;9.90;;;;;;;;;;5053903;28;20237;-79
2023/01/21 04:03:11;;;;;;;10.63;9.23;;;;;;;;;;5054282;28;20518;-80
2023/01/21 04:05:37;;;;;;;12.53;9.27;;;;;;;;;;5062060;28;20169;-82
2023/01/21 04:08:03;;;;;;;9.27;8.27;;;;;;;;;;5072671;28;20230;-84
2023/01/21 04:10:29;;;;;;;9.43;8.43;;;;;;;;;;5086815;28;20185;-84
2023/01/21 04:12:55;;;;;;;11.27;8.63;;;;;;;;;;5071521;28;20181;-83
2023/01/21 04:15:21;;;;;;;9.30;8.07;;;;;;;;;;5072226;28;20183;-82
2023/01/21 04:17:47;;;;;;;8.50;7.37;;;;;;;;;;5069392;28;20741;-82
2023/01/21 04:20:13;;;;;;;10.47;8.03;;;;;;;;;;5078293;28;20177;-83
2023/01/21 04:22:39;;;;;;;10.67;8.13;;;;;;;;;;5056117;28;20215;-80
2023/01/21 04:25:05;;;;;;;8.10;7.13;;;;;;;;;;5069262;28;20180;-83
2023/01/21 04:27:31;;;;;;;8.43;6.87;;;;;;;;;;5054451;28;20180;-79
2023/01/21 04:29:57;;;;;;;9.60;7.17;;;;;;;;;;5051040;28;20196;-85
2023/01/21 04:32:23;;;;;;;8.77;7.40;;;;;;;;;;5044544;28;20222;-84
2023/01/21 04:34:49;;;;;;;9.10;7.20;;;;;;;;;;5059990;28;20660;-84
2023/01/21 04:37:15;;;;;;;7.73;6.17;;;;;;;;;;5054967;28;20287;-84
2023/01/21 04:39:41;;;;;;;8.17;6.10;;;;;;;;;;5054402;28;20177;-81
2023/01/21 04:42:07;;;;;;;6.90;5.80;;;;;;;;;;5085600;28;20185;-79
2023/01/21 04:44:33;;;;;;;6.03;5.20;;;;;;;;;;5053457;28;20188;-82
2023/01/21 04:46:59;;;;;;;6.60;5.17;;;;;;;;;;5047339;28;20586;-83
2023/01/21 04:49:25;;;;;;;5.53;4.93;;;;;;;;;;5055742;28;20214;-82
2023/01/21 04:51:51;;;;;;;6.70;5.30;;;;;;;;;;5056387;28;20227;-84
2023/01/21 04:54:17;;;;;;;7.40;5.07;;;;;;;;;;5051121;28;20208;-80
2023/01/21 04:56:43;;;;;;;5.80;5.00;;;;;;;;;;5059610;28;20192;-81
2023/01/21 04:59:10;;;;;;;5.37;4.60;;;;;;;;;;5057480;28;20185;-83
2023/01/21 05:01:36;;;;;;;4.93;4.13;;;;;;;;;;5060940;28;20559;-82
2023/01/21 05:04:02;;;;;;;5.10;3.93;;;;;;;;;;5055682;28;20185;-83
2023/01/21 05:06:28;;;;;;;4.20;3.80;;;;;;;;;;5057958;28;20240;-84
2023/01/21 05:08:54;;;;;;;4.40;3.90;;;;;;;;;;5057824;28;20216;-80
2023/01/21 05:11:20;;;;;;;6.30;3.87;;;;;;;;;;5091058;28;20196;-87
2023/01/21 05:13:46;;;;;;;4.13;3.50;;;;;;;;;;5059575;28;20355;-86
2023/01/21 05:16:13;;;;;;;3.47;2.93;;;;;;;;;;5055988;28;20662;-86
2023/01/21 05:18:39;;;;;;;3.40;2.83;;;;;;;;;;5090848;28;20181;-86
2023/01/21 05:21:06;;;;;;;2.73;2.53;;;;;;;;;;5074135;28;20172;-83
2023/01/21 05:23:32;;;;;;;2.80;2.40;;;;;;;;;;5056915;28;20188;-81
2023/01/21 05:25:58;;;;;;;3.47;2.70;;;;;;;;;;5056733;28;20654;-82
2023/01/21 05:28:24;;;;;;;2.77;2.53;;;;;;;;;;5057790;28;20181;-86
2023/01/21 05:30:50;;;;;;;2.40;2.20;;;;;;;;;;5056047;28;20287;-81
2023/01/21 05:33:16;;;;;;;2.33;2.13;;;;;;;;;;5072267;28;20200;-85
2023/01/21 05:35:42;;;;;;;2.43;2.23;;;;;;;;;;5059747;28;20236;-85
2023/01/21 05:38:08;;;;;;;2.70;2.37;;;;;;;;;;5056235;28;20185;-82
2023/01/21 05:40:34;;;;;;;2.33;2.13;;;;;;;;;;5073020;28;20181;-82
2023/01/21 05:43:00;;;;;;;3.87;3.47;;;;;;;;;;5055440;28;20173;-87
2023/01/21 05:45:26;;;;;;;3.37;3.07;;;;;;;;;;5090404;28;20187;-83
2023/01/21 05:47:52;;;;;;;3.30;2.80;;;;;;;;;;5055459;28;20668;-85
2023/01/21 05:50:18;;;;;;;2.83;2.53;;;;;;;;;;5055828;28;20233;-84
2023/01/21 05:52:44;;;;;;;2.73;2.40;;;;;;;;;;5089142;28;20240;-85
2023/01/21 05:55:10;;;;;;;2.50;2.30;;;;;;;;;;5073817;28;20209;-86
2023/01/21 05:57:36;;;;;;;2.50;2.30;;;;;;;;;;5090967;28;20173;-87
2023/01/21 06:00:03;;;;;;;2.60;2.27;;;;;;;;;;5088266;28;20223;-82
2023/01/21 06:02:29;;;;;;;3.10;2.50;;;;;;;;;;5057696;28;20193;-86
2023/01/21 06:04:55;;;;;;;4.03;2.30;;;;;;;;;;5055604;28;20185;-85
2023/01/21 06:07:21;;;;;;;2.60;2.20;;;;;;;;;;5087936;28;20653;-85
2023/01/21 06:09:47;;;;;;;2.00;1.90;;;;;;;;;;5089335;28;20231;-87
2023/01/21 06:12:13;;;;;;;17.80;12.40;;;;;;;;;;5073714;28;20193;-84
2023/01/21 06:14:39;;;;;;;2.83;2.53;;;;;;;;;;5072581;28;20192;-82
2023/01/21 06:17:05;;;;;;;2.67;2.33;;;;;;;;;;5057025;28;20215;-82
2023/01/21 06:19:31;;;;;;;3.53;3.23;;;;;;;;;;5079168;28;20557;-83
2023/01/21 06:21:57;;;;;;;3.57;2.90;;;;;;;;;;5054816;28;20173;-83
2023/01/21 06:24:23;;;;;;;3.23;2.83;;;;;;;;;;5082248;28;20173;-83
2023/01/21 06:26:49;;;;;;;2.63;2.43;;;;;;;;;;5068555;28;20661;-82
2023/01/21 06:29:15;;;;;;;2.77;2.57;;;;;;;;;;5071059;28;20241;-83
2023/01/21 06:31:41;;;;;;;2.60;2.40;;;;;;;;;;5055368;28;20224;-82
2023/01/21 06:34:07;;;;;;;2.97;2.73;;;;;;;;;;5053449;28;20200;-82
2023/01/21 06:36:33;;;;;;;2.77;2.47;;;;;;;;;;5051298;28;20181;-82
2023/01/21 06:38:58;;;;;;;3.00;2.70;;;;;;;;;;5070818;28;20703;-83
2023/01/21 06:41:24;;;;;;;3.27;2.97;;;;;;;;;;5054017;28;20189;-82
2023/01/21 06:43:51;;;;;;;4.37;2.40;;;;;;;;;;5081489;28;20594;-82
2023/01/21 06:46:17;;;;;;;2.50;1.93;;;;;;;;;;5086901;28;20238;-82
2023/01/21 06:48:43;;;;;;;2.40;2.20;;;;;;;;;;5084196;28;20612;-86
2023/01/21 06:51:09;;;;;;;2.70;2.50;;;;;;;;;;5052257;28;20209;-81
2023/01/21 06:53:35;;;;;;;2.57;2.27;;;;;;;;;;5072666;28;20185;-91
2023/01/21 06:56:01;;;;;;;3.03;2.73;;;;;;;;;;5054616;28;20191;-82
2023/01/21 06:58:27;;;;;;;5.47;4.00;;;;;;;;;;5071931;28;20267;-82
2023/01/21 07:00:55;;;;;;;5.10;3.90;;;;;;;;;;5071542;28;20181;-84
2023/01/21 07:03:21;;;;;;;10.40;6.93;;;;;;;;;;5054315;28;20190;-83
2023/01/21 07:05:47;;;;;;;6.70;4.80;;;;;;;;;;5052742;28;20184;-85
2023/01/21 07:08:13;;;;;;;6.30;4.47;;;;;;;;;;5071674;28;20185;-83
2023/01/21 07:10:39;;;;;;;9.30;6.20;;;;;;;;;;5047568;28;20234;-83
2023/01/21 07:13:05;;;;;;;8.83;6.27;;;;;;;;;;5054953;28;20187;-83
2023/01/21 07:15:31;;;;;;;8.40;5.93;;;;;;;;;;5072925;28;20200;-83
2023/01/21 07:17:57;;;;;;;4.70;3.73;;;;;;;;;;5054270;28;20188;-83
2023/01/21 07:20:24;;;;;;;10.17;6.37;;;;;;;;;;5050697;28;20231;-83
2023/01/21 07:22:50;;;;;;;7.63;4.73;;;;;;;;;;5055091;28;20200;-83
2023/01/21 07:25:16;;;;;;;5.30;3.97;;;;;;;;;;5055103;28;20215;-83
2023/01/21 07:27:42;;;;;;;9.97;5.77;;;;;;;;;;5073181;28;20173;-83
2023/01/21 07:30:10;;;;;;;15.53;8.17;;;;;;;;;;5070458;28;20254;-81
2023/01/21 07:32:36;;;;;;;15.00;7.70;;;;;;;;;;5051237;28;20205;-83
2023/01/21 07:35:02;;;;;;;12.97;7.87;;;;;;;;;;5054504;28;20181;-84
2023/01/21 07:37:28;;;;;;;8.63;5.43;;;;;;;;;;5056673;28;20628;-83
2023/01/21 07:39:54;;;;;;;15.10;9.20;;;;;;;;;;5051756;28;20253;-83
2023/01/21 07:42:20;;;;;;;17.57;9.67;;;;;;;;;;5055116;28;20191;-83
2023/01/21 07:44:46;;;;;;;14.73;7.40;;;;;;;;;;5054205;28;20547;-83
2023/01/21 07:47:12;;;;;;;6.60;4.30;;;;;;;;;;5050549;28;20196;-81
2023/01/21 07:49:39;;;;;;;8.13;4.60;;;;;;;;;;5054453;28;20776;-83
2023/01/21 07:52:05;;;;;;;5.93;4.40;;;;;;;;;;5053991;28;20201;-83
2023/01/21 07:54:31;;;;;;;8.47;5.30;;;;;;;;;;5087437;28;20267;-82
2023/01/21 07:56:57;;;;;;;7.17;4.63;;;;;;;;;;5044278;28;20186;-83
2023/01/21 07:59:24;;;;;;;5.63;3.13;;;;;;;;;;5064178;28;20625;-83
2023/01/21 08:01:50;;;;;;;6.07;4.20;;;;;;;;;;5053208;28;20271;-83
2023/01/21 08:04:16;;;;;;;9.90;5.57;;;;;;;;;;5053301;28;20185;-82
2023/01/21 08:06:42;;;;;;;4.80;2.70;;;;;;;;;;5054631;28;20231;-81
2023/01/21 08:09:08;;;;;;;2.23;2.03;;;;;;;;;;5053588;28;20602;-81
2023/01/21 08:11:34;;;;;;;2.97;2.67;;;;;;;;;;5053269;28;20201;-81
2023/01/21 08:14:00;;;;;;;5.30;3.73;;;;;;;;;;5052736;28;20250;-83
2023/01/21 08:16:26;;;;;;;6.23;5.13;;;;;;;;;;5052070;28;20427;-82
2023/01/21 08:18:53;;;;;;;6.57;5.50;;;;;;;;;;5074073;28;20541;-79
2023/01/21 08:21:19;;;;;;;5.67;4.27;;;;;;;;;;5055024;28;20390;-81
2023/01/21 08:23:45;;;;;;;12.60;7.87;;;;;;;;;;5057342;28;20178;-81
2023/01/21 08:26:11;;;;;;;5.37;3.83;;;;;;;;;;5072263;28;20264;-81
2023/01/21 08:28:37;;;;;;;21.87;13.07;;;;;;;;;;5057152;28;20327;-81
2023/01/21 08:31:08;;;;;;;7.87;5.83;;;;;;;;;;5056990;28;20557;-81
2023/01/21 08:33:34;;;;;;;4.83;4.03;;;;;;;;;;5075447;28;20514;-83
2023/01/21 08:36:00;;;;;;;4.17;3.43;;;;;;;;;;5056225;28;20191;-82
2023/01/21 08:38:27;;;;;;;11.40;6.40;;;;;;;;;;5072750;28;20697;-82
2023/01/21 08:40:52;;;;;;;4.63;3.90;;;;;;;;;;5057470;28;20546;-82
2023/01/21 08:43:18;;;;;;;4.50;3.40;;;;;;;;;;5056789;28;20177;-82
2023/01/21 08:45:44;;;;;;;3.37;2.90;;;;;;;;;;5057305;28;20279;-81
2023/01/21 08:48:10;;;;;;;13.47;6.23;;;;;;;;;;5057164;28;20697;-81
2023/01/21 08:50:36;;;;;;;5.07;3.43;;;;;;;;;;5057242;28;20258;-82
2023/01/21 08:53:02;;;;;;;15.93;7.80;;;;;;;;;;5056693;28;20214;-82
2023/01/21 08:55:28;;;;;;;6.23;4.10;;;;;;;;;;5074230;28;20688;-82
2023/01/21 08:57:56;;;;;;;3.70;2.63;;;;;;;;;;5056540;28;20177;-82
2023/01/21 09:00:23;;;;;;;8.60;4.07;;;;;;;;;;5073902;28;20247;-84
2023/01/21 09:02:49;;;;;;;5.17;4.17;;;;;;;;;;5056172;28;20200;-82
2023/01/21 09:05:15;;;;;;;5.50;4.47;;;;;;;;;;5055721;28;20707;-83
2023/01/21 09:07:41;;;;;;;7.97;3.80;;;;;;;;;;5056313;28;20203;-88
2023/01/21 09:10:07;;;;;;;3.37;3.07;;;;;;;;;;5055238;28;20597;-82
2023/01/21 09:12:34;;;;;;;4.60;3.20;;;;;;;;;;5088785;28;20692;-88
2023/01/21 09:15:00;;;;;;;3.73;2.93;;;;;;;;;;5055462;28;20188;-82
2023/01/21 09:17:26;;;;;;;4.37;3.27;;;;;;;;;;5056214;28;20188;-82
2023/01/21 09:19:52;;;;;;;7.27;4.07;;;;;;;;;;5056834;28;20185;-82
2023/01/21 09:22:18;;;;;;;8.43;4.70;;;;;;;;;;5055581;28;20181;-82
2023/01/21 09:24:44;;;;;;;4.80;3.53;;;;;;;;;;5062649;28;20670;-83
2023/01/21 09:27:10;;;;;;;6.63;4.77;;;;;;;;;;5071681;28;20193;-81
2023/01/21 09:29:36;;;;;;;6.13;3.70;;;;;;;;;;5052083;28;20191;-81
2023/01/21 09:32:04;;;;;;;8.30;4.40;;;;;;;;;;5055284;28;20561;-81
2023/01/21 09:34:29;;;;;;;23.00;16.03;;;;;;;;;;5051297;28;20297;-81
2023/01/21 09:36:55;;;;;;;27.43;19.73;;;;;;;;;;5035701;28;20202;-81
2023/01/21 09:39:21;;;;;;;25.20;18.10;;;;;;;;;;5055212;28;20574;-81
2023/01/21 09:41:49;;;;;;;11.80;10.17;;;;;;;;;;5055266;28;20192;-82
2023/01/21 09:44:15;;;;;;;12.80;11.27;;;;;;;;;;5053332;28;20551;-81
2023/01/21 09:46:44;;;;;;;21.27;17.80;;;;;;;;;;5054879;28;20648;-81
2023/01/21 09:49:16;;;;;;;11.33;9.27;;;;;;;;;;5055106;28;20231;-82
2023/01/21 09:51:46;;;;;;;5.53;4.53;;;;;;;;;;5053344;28;20662;-84
2023/01/21 09:54:18;;;;;;;6.57;4.70;;;;;;;;;;5068512;28;20539;-83
2023/01/21 09:56:51;;;;;;;6.77;4.60;;;;;;;;;;5061470;28;20177;-85
2023/01/21 09:59:23;;;;;;;8.10;5.03;;;;;;;;;;5069997;28;20186;-82
2023/01/21 10:01:49;;;;;;;7.30;5.67;;;;;;;;;;5055183;28;20196;-83
2023/01/21 10:04:24;;;;;;;7.57;6.17;;;;;;;;;;5054756;28;20169;-83
2023/01/21 10:07:23;;;;;;;8.57;6.57;;;;;;;;;;5055378;28;20243;-81
2023/01/21 10:09:49;;;;;;;8.27;5.90;;;;;;;;;;5010982;28;20235;-82
2023/01/21 10:12:40;;;;;;;10.13;7.93;;;;;;;;;;4992777;28;20210;-85
2023/01/21 10:15:20;;;;;;;7.23;6.20;;;;;;;;;;4994962;28;20206;-83
2023/01/21 10:17:46;;;;;;;8.37;7.33;;;;;;;;;;4994413;28;20211;-80
2023/01/21 10:20:18;;;;;;;8.57;7.77;;;;;;;;;;4994436;28;20216;-83
2023/01/21 10:22:48;;;;;;;11.53;9.77;;;;;;;;;;4994216;28;20187;-87
2023/01/21 10:25:33;;;;;;;15.50;11.70;;;;;;;;;;5006309;28;20187;-84
2023/01/21 10:28:03;;;;;;;13.63;11.43;;;;;;;;;;5011776;28;20190;-83
2023/01/21 10:30:33;;;;;;;7.40;6.27;;;;;;;;;;5011697;28;20174;-86
2023/01/21 10:32:59;;;;;;;11.70;8.27;;;;;;;;;;5005637;28;20330;-85
2023/01/21 10:35:41;;;;;;;10.73;8.20;;;;;;;;;;4990059;28;20191;-88
2023/01/21 10:38:11;;;;;;;14.80;12.03;;;;;;;;;;4990107;28;20284;-83
2023/01/21 10:40:42;;;;;;;12.87;10.30;;;;;;;;;;4992336;28;20187;-85
2023/01/21 10:43:29;;;;;;;9.80;7.00;;;;;;;;;;4991533;28;20234;-85
2023/01/21 10:46:07;;;;;;;8.33;6.63;;;;;;;;;;5050298;28;20195;-82
2023/01/21 10:48:37;;;;;;;8.97;7.17;;;;;;;;;;5086439;28;20211;-84
2023/01/21 10:51:09;;;;;;;14.73;9.17;;;;;;;;;;5065090;28;20277;-84
2023/01/21 10:53:41;;;;;;;18.97;13.57;;;;;;;;;;5038194;28;20189;-81
2023/01/21 10:56:28;;;;;;;16.73;12.83;;;;;;;;;;5063769;28;20211;-82
2023/01/21 10:58:57;;;;;;;11.03;8.93;;;;;;;;;;5045827;28;20556;-86
2023/01/21 11:01:29;;;;;;;11.53;9.97;;;;;;;;;;5052476;28;20189;-84
2023/01/21 11:03:57;;;;;;;13.77;11.17;;;;;;;;;;5052789;28;20170;-80
2023/01/21 11:06:24;;;;;;;13.77;10.23;;;;;;;;;;5053517;28;20181;-83
2023/01/21 11:08:53;;;;;;;19.53;15.13;;;;;;;;;;5053876;28;20208;-84
2023/01/21 11:11:25;;;;;;;13.00;8.90;;;;;;;;;;5045899;28;20213;-84
2023/01/21 11:13:51;;;;;;;12.63;9.00;;;;;;;;;;5040580;28;20200;-83
2023/01/21 11:16:36;;;;;;;16.00;10.70;;;;;;;;;;5071459;28;20653;-84
2023/01/21 11:19:04;;;;;;;11.20;9.00;;;;;;;;;;5055564;28;20684;-83
2023/01/21 11:21:30;;;;;;;14.60;8.80;;;;;;;;;;5075697;28;20181;-81
2023/01/21 11:23:57;;;;;;;14.43;9.93;;;;;;;;;;5053820;28;20204;-87
2023/01/21 11:26:46;;;;;;;14.53;8.77;;;;;;;;;;5053785;28;20177;-82
2023/01/21 11:29:17;;;;;;;13.67;10.10;;;;;;;;;;5052724;28;20205;-81
2023/01/21 11:31:44;;;;;;;13.83;9.33;;;;;;;;;;5054866;28;20223;-83
2023/01/21 11:34:15;;;;;;;10.63;8.60;;;;;;;;;;5054689;28;20179;-82
2023/01/21 11:37:01;;;;;;;14.83;11.90;;;;;;;;;;5071536;28;20161;-83
2023/01/21 11:39:29;;;;;;;20.87;15.10;;;;;;;;;;5050923;28;20181;-81
2023/01/21 11:41:56;;;;;;;17.27;12.23;;;;;;;;;;5050938;28;20188;-82
2023/01/21 11:44:24;;;;;;;21.80;15.07;;;;;;;;;;5051416;28;20177;-82
2023/01/21 11:46:51;;;;;;;16.57;12.53;;;;;;;;;;5053595;28;20215;-85
2023/01/21 11:49:23;;;;;;;22.20;13.00;;;;;;;;;;5044292;28;20746;-81
2023/01/21 11:52:24;;;;;;;11.07;8.27;;;;;;;;;;5030659;28;20252;-83
2023/01/21 11:54:50;;;;;;;11.87;9.43;;;;;;;;;;4974425;28;20238;-82
2023/01/21 11:57:22;;;;;;;14.77;9.10;;;;;;;;;;4975483;28;20191;-89
2023/01/21 11:59:49;;;;;;;12.70;8.87;;;;;;;;;;4971129;28;20184;-83
2023/01/21 12:02:19;;;;;;;15.47;9.90;;;;;;;;;;4990906;28;20630;-83
2023/01/21 12:04:49;;;;;;;13.90;9.37;;;;;;;;;;4974346;28;20957;-81
2023/01/21 12:07:20;;;;;;;14.93;10.83;;;;;;;;;;4992611;28;20210;-83
2023/01/21 12:09:53;;;;;;;16.37;11.90;;;;;;;;;;4987016;28;20184;-83
2023/01/21 12:12:30;;;;;;;16.40;11.00;;;;;;;;;;4975061;28;20216;-85
2023/01/21 12:14:58;;;;;;;19.00;12.20;;;;;;;;;;4975984;28;20278;-84
2023/01/21 12:17:25;;;;;;;21.33;14.43;;;;;;;;;;4976614;28;20184;-83
2023/01/21 12:20:30;;;;;;;24.07;16.07;;;;;;;;;;4975351;28;20207;-84
2023/01/21 12:23:05;;;;;;;20.07;12.53;;;;;;;;;;4938998;29;20212;-84
2023/01/21 12:25:54;;;;;;;20.70;12.27;;;;;;;;;;4954815;29;20177;-83
2023/01/21 12:28:23;;;;;;;21.07;12.83;;;;;;;;;;4934290;28;20279;-83
2023/01/21 12:30:54;;;;;;;23.73;14.07;;;;;;;;;;4974338;28;20192;-85
2023/01/21 12:33:35;;;;;;;20.07;12.53;;;;;;;;;;4974388;28;20235;-84
2023/01/21 12:36:12;;;;;;;19.67;13.40;;;;;;;;;;4966573;28;20250;-84
2023/01/21 12:38:41;;;;;;;22.33;13.70;;;;;;;;;;4969800;28;20765;-84
2023/01/21 12:41:14;;;;;;;22.10;14.40;;;;;;;;;;4970229;28;20325;-83
2023/01/21 12:43:47;;;;;;;21.77;15.37;;;;;;;;;;4958376;28;20211;-83
2023/01/21 12:46:18;;;;;;;28.20;16.43;;;;;;;;;;4957930;28;20223;-84
2023/01/21 12:48:48;;;;;;;32.03;20.00;;;;;;;;;;4956916;28;20247;-84
2023/01/21 12:51:18;;;;;;;28.43;18.10;;;;;;;;;;4975597;28;20210;-84
2023/01/21 12:53:50;;;;;;;22.60;13.63;;;;;;;;;;4965344;28;20719;-83
2023/01/21 12:56:21;;;;;;;23.40;12.90;;;;;;;;;;4992880;28;20247;-83
2023/01/21 12:58:54;;;;;;;23.27;14.30;;;;;;;;;;4993897;28;20203;-83
2023/01/21 13:01:49;;;;;;;24.53;14.63;;;;;;;;;;4988640;28;20190;-84
2023/01/21 13:04:17;;;;;;;22.13;13.33;;;;;;;;;;4953705;28;20279;-83
2023/01/21 13:06:47;;;;;;;22.13;14.33;;;;;;;;;;4996221;28;20577;-84
2023/01/21 13:09:13;;;;;;;21.10;13.47;;;;;;;;;;5013178;28;20195;-84
2023/01/21 13:11:44;;;;;;;33.07;15.60;;;;;;;;;;4995884;28;20583;-84
2023/01/21 13:14:32;;;;;;;28.47;15.17;;;;;;;;;;4996072;28;20676;-83
2023/01/21 13:17:03;;;;;;;28.03;14.77;;;;;;;;;;5012253;28;20183;-84
2023/01/21 13:19:29;;;;;;;25.57;14.90;;;;;;;;;;4995850;28;20503;-84
2023/01/21 13:22:01;;;;;;;26.53;14.13;;;;;;;;;;4996454;28;20230;-84
2023/01/21 13:24:34;;;;;;;23.10;14.07;;;;;;;;;;4996148;28;20214;-84
2023/01/21 13:27:13;;;;;;;21.97;14.17;;;;;;;;;;5012281;28;20213;-83
2023/01/21 13:29:49;;;;;;;21.83;13.33;;;;;;;;;;4996314;28;20182;-85
2023/01/21 13:32:30;;;;;;;21.47;13.57;;;;;;;;;;4995626;28;20210;-88
2023/01/21 13:35:05;;;;;;;22.80;14.57;;;;;;;;;;4979222;28;20329;-87
2023/01/21 13:37:42;;;;;;;25.00;14.17;;;;;;;;;;4993710;28;20178;-84
2023/01/21 13:40:21;;;;;;;21.00;13.93;;;;;;;;;;5021757;28;20190;-87
2023/01/21 13:42:59;;;;;;;35.80;22.13;;;;;;;;;;5033450;28;20201;-88
2023/01/21 13:45:27;;;;;;;71.67;33.40;;;;;;;;;;5033204;28;20178;-83
2023/01/21 13:47:53;;;;;;;29.63;16.83;;;;;;;;;;5034794;28;20185;-84
2023/01/21 13:50:19;;;;;;;43.53;24.53;;;;;;;;;;5061445;28;20228;-88
2023/01/21 13:53:02;;;;;;;38.70;25.10;;;;;;;;;;5043666;28;20291;-85
2023/01/21 13:55:46;;;;;;;49.90;31.27;;;;;;;;;;5047235;28;20538;-86
2023/01/21 13:58:14;;;;;;;32.60;20.60;;;;;;;;;;5041185;28;20183;-86
2023/01/21 14:00:52;;;;;;;31.00;17.77;;;;;;;;;;5053654;28;20220;-83
2023/01/21 14:03:31;;;;;;;28.63;18.73;;;;;;;;;;5040463;28;20177;-84
2023/01/21 14:06:00;;;;;;;28.77;17.63;;;;;;;;;;5036064;28;20177;-82
2023/01/21 14:08:31;;;;;;;29.37;18.63;;;;;;;;;;5037901;28;20178;-83
2023/01/21 14:11:03;;;;;;;44.40;21.37;;;;;;;;;;5041829;28;20323;-82
2023/01/21 14:13:35;;;;;;;30.97;18.07;;;;;;;;;;5031665;28;20177;-84
2023/01/21 14:16:20;;;;;;;25.73;16.43;;;;;;;;;;5023819;28;20179;-82
2023/01/21 14:19:04;;;;;;;31.07;18.00;;;;;;;;;;5039415;28;20213;-84
2023/01/21 14:21:55;;;;;;;27.30;17.87;;;;;;;;;;5033460;28;20205;-85
2023/01/21 14:24:21;;;;;;;33.60;18.90;;;;;;;;;;5038447;28;20582;-85
2023/01/21 14:27:02;;;;;;;29.50;17.83;;;;;;;;;;5037383;28;20242;-87
2023/01/21 14:29:41;;;;;;;30.03;17.27;;;;;;;;;;5039762;28;20182;-86
2023/01/21 14:32:27;;;;;;;32.73;18.13;;;;;;;;;;5022638;28;20232;-84
2023/01/21 14:34:56;;;;;;;33.77;19.00;;;;;;;;;;5038011;28;20190;-83
2023/01/21 14:37:51;;;;;;;35.27;18.80;;;;;;;;;;5030143;28;20179;-81
2023/01/21 14:40:19;;;;;;;33.13;19.23;;;;;;;;;;5002473;28;20188;-81
2023/01/21 14:42:52;;;;;;;38.53;20.60;;;;;;;;;;4976841;28;20191;-80
2023/01/21 14:45:21;;;;;;;39.17;19.67;;;;;;;;;;4978798;28;20622;-83
2023/01/21 14:47:51;;;;;;;35.20;18.50;;;;;;;;;;5001140;28;20231;-83
2023/01/21 14:50:37;;;;;;;35.63;19.97;;;;;;;;;;5006937;28;20309;-82
2023/01/21 14:53:10;;;;;;;37.00;20.70;;;;;;;;;;5010606;28;20603;-81